createdAt,value
2022-11-17T00:00:09.990Z,96937.02
2022-11-17T00:02:37.146Z,96934.53
2022-11-17T00:05:04.402Z,96941.08
2022-11-17T00:07:31.013Z,96940.77
2022-11-17T00:09:57.691Z,96942.85
2022-11-17T00:12:28.406Z,96939.56
2022-11-17T00:14:58.035Z,96943.59
2022-11-17T00:17:24.479Z,96949.95
2022-11-17T00:19:51.156Z,96947.50
2022-11-17T00:23:01.808Z,96948.06
2022-11-17T00:26:12.981Z,96952.91
2022-11-17T00:28:39.573Z,96952.14
2022-11-17T00:31:06.166Z,96953.02
2022-11-17T00:33:32.818Z,96950.46
2022-11-17T00:35:59.574Z,96942.98
2022-11-17T00:38:26.100Z,96941.48
2022-11-17T00:40:52.546Z,96945.26
2022-11-17T00:43:18.988Z,96944.94
2022-11-17T00:45:45.510Z,96947.19
2022-11-17T00:48:12.052Z,96955.05
2022-11-17T00:50:38.574Z,96959.98
2022-11-17T00:53:05.235Z,96960.62
2022-11-17T00:55:31.835Z,96963.89
2022-11-17T00:57:58.403Z,96967.19
2022-11-17T01:00:24.961Z,96958.98
2022-11-17T01:02:51.492Z,96955.08
2022-11-17T01:05:17.981Z,96951.31
2022-11-17T01:07:44.619Z,96952.21
2022-11-17T01:10:11.208Z,96953.06
2022-11-17T01:12:37.706Z,96954.95
2022-11-17T01:15:04.501Z,96949.13
2022-11-17T01:17:31.145Z,96947.96
2022-11-17T01:19:57.687Z,96945.75
2022-11-17T01:22:24.241Z,96946.48
2022-11-17T01:24:50.782Z,96945.84
2022-11-17T01:27:17.309Z,96944.34
2022-11-17T01:29:43.960Z,96939.76
2022-11-17T01:32:10.452Z,96940.33
2022-11-17T01:34:36.963Z,96941.36
2022-11-17T01:37:03.399Z,96942.14
2022-11-17T01:39:31.046Z,96937.64
2022-11-17T01:41:58.512Z,96933.34
2022-11-17T01:44:57.634Z,96929.39
2022-11-17T01:47:28.519Z,96934.69
2022-11-17T01:50:03.809Z,96941.97
2022-11-17T01:52:32.905Z,96946.76
2022-11-17T01:55:00.775Z,96951.05
2022-11-17T01:57:32.097Z,96950.61
2022-11-17T02:00:03.337Z,96952.16
2022-11-17T02:02:30.851Z,96952.52
2022-11-17T02:05:14.000Z,96959.21
2022-11-17T02:07:43.105Z,96959.98
2022-11-17T02:10:10.022Z,96958.08
2022-11-17T02:12:37.272Z,96952.21
2022-11-17T02:15:04.749Z,96950.80
2022-11-17T02:17:44.112Z,96949.57
2022-11-17T02:20:17.990Z,96949.75
2022-11-17T02:22:47.499Z,96948.06
2022-11-17T02:25:48.141Z,96941.32
2022-11-17T02:28:36.384Z,96920.09
2022-11-17T02:31:28.216Z,96909.27
2022-11-17T02:34:04.693Z,96912.30
2022-11-17T02:37:01.847Z,96919.87
2022-11-17T02:39:56.654Z,96927.32
2022-11-17T02:42:41.677Z,96926.93
2022-11-17T02:45:11.608Z,96930.70
2022-11-17T02:47:42.102Z,96928.48
2022-11-17T02:50:11.229Z,96929.89
2022-11-17T02:52:38.435Z,96938.27
2022-11-17T02:55:08.064Z,96939.83
2022-11-17T02:57:37.117Z,96943.61
2022-11-17T03:00:15.815Z,96941.08
2022-11-17T03:02:48.452Z,96939.69
2022-11-17T03:05:43.298Z,96942.17
2022-11-17T03:08:21.911Z,96942.17
2022-11-17T03:10:58.300Z,96943.83
2022-11-17T03:13:34.295Z,96942.94
2022-11-17T03:16:24.563Z,96951.35
2022-11-17T03:19:06.017Z,96950.17
2022-11-17T03:21:40.886Z,96951.09
2022-11-17T03:24:20.788Z,96945.23
2022-11-17T03:26:52.894Z,96945.37
2022-11-17T03:29:24.014Z,96944.66
2022-11-17T03:31:57.045Z,96947.92
2022-11-17T03:34:26.619Z,96947.80
2022-11-17T03:37:00.393Z,96943.42
2022-11-17T03:39:43.081Z,96931.98
2022-11-17T03:42:27.444Z,96925.88
2022-11-17T03:44:59.264Z,96919.11
2022-11-17T03:47:28.359Z,96915.55
2022-11-17T03:50:11.897Z,96920.88
2022-11-17T03:52:38.950Z,96919.61
2022-11-17T03:55:06.514Z,96919.74
2022-11-17T03:57:41.554Z,96923.62
2022-11-17T04:00:15.171Z,96926.09
2022-11-17T04:02:46.923Z,96934.20
2022-11-17T04:05:15.637Z,96938.91
2022-11-17T04:07:47.069Z,96942.05
2022-11-17T04:10:17.906Z,96943.67
2022-11-17T04:12:45.283Z,96948.35
2022-11-17T04:15:12.319Z,96955.39
2022-11-17T04:17:38.955Z,96957.31
2022-11-17T04:20:06.128Z,96957.33
2022-11-17T04:22:32.658Z,96952.73
2022-11-17T04:24:59.258Z,96956.14
2022-11-17T04:27:25.734Z,96956.34
2022-11-17T04:29:52.176Z,96953.96
2022-11-17T04:32:18.627Z,96953.85
2022-11-17T04:34:45.248Z,96956.33
2022-11-17T04:37:11.824Z,96963.89
2022-11-17T04:39:38.437Z,96967.03
2022-11-17T04:42:04.981Z,96973.45
2022-11-17T04:44:32.844Z,96974.73
2022-11-17T04:46:59.799Z,96977.36
2022-11-17T04:49:26.740Z,96974.89
2022-11-17T04:51:54.183Z,96976.85
2022-11-17T04:54:23.106Z,96977.73
2022-11-17T04:56:50.156Z,96980.23
2022-11-17T04:59:17.091Z,96982.03
2022-11-17T05:01:44.339Z,96987.59
2022-11-17T05:04:13.270Z,96988.18
2022-11-17T05:06:44.554Z,96985.35
2022-11-17T05:09:16.595Z,96979.95
2022-11-17T05:11:43.738Z,96982.77
2022-11-17T05:14:11.303Z,96987.30
2022-11-17T05:16:37.755Z,96989.76
2022-11-17T05:19:07.451Z,96992.11
2022-11-17T05:21:34.093Z,96988.31
2022-11-17T05:24:00.552Z,96989.50
2022-11-17T05:26:30.014Z,96993.71
2022-11-17T05:28:58.577Z,96995.60
2022-11-17T05:31:26.715Z,96997.10
2022-11-17T05:33:53.855Z,96998.20
2022-11-17T05:36:22.031Z,96998.09
2022-11-17T05:38:49.305Z,96998.08
2022-11-17T05:41:17.183Z,96989.38
2022-11-17T05:43:44.416Z,96992.97
2022-11-17T05:46:11.402Z,96990.02
2022-11-17T05:48:38.421Z,96988.00
2022-11-17T05:51:05.878Z,96989.20
2022-11-17T05:53:33.095Z,96993.48
2022-11-17T05:56:30.705Z,96997.55
2022-11-17T05:59:29.319Z,97003.30
2022-11-17T06:02:11.648Z,97004.08
2022-11-17T06:04:39.416Z,97003.17
2022-11-17T06:07:06.062Z,97000.94
2022-11-17T06:09:37.053Z,96997.69
2022-11-17T06:12:06.197Z,97001.64
2022-11-17T06:14:34.255Z,97006.92
2022-11-17T06:17:06.911Z,97013.70
2022-11-17T06:19:40.265Z,97017.61
2022-11-17T06:22:12.565Z,97022.34
2022-11-17T06:24:41.792Z,97028.98
2022-11-17T06:27:08.318Z,97030.67
2022-11-17T06:29:38.194Z,97025.35
2022-11-17T06:32:07.722Z,97024.63
2022-11-17T06:34:35.111Z,97026.96
2022-11-17T06:37:01.649Z,97030.02
2022-11-17T06:39:28.088Z,97037.48
2022-11-17T06:41:54.628Z,97038.29
2022-11-17T06:44:21.168Z,97040.13
2022-11-17T06:46:49.217Z,97041.64
2022-11-17T06:49:16.102Z,97045.91
2022-11-17T06:51:45.389Z,97041.21
2022-11-17T06:54:12.745Z,97042.73
2022-11-17T06:56:39.224Z,97043.64
2022-11-17T06:59:06.038Z,97046.54
2022-11-17T07:01:32.436Z,97045.30
2022-11-17T07:03:58.868Z,97040.59
2022-11-17T07:06:25.407Z,97036.20
2022-11-17T07:08:51.908Z,97031.56
2022-11-17T07:11:19.052Z,97030.09
2022-11-17T07:13:45.496Z,97034.05
2022-11-17T07:16:23.252Z,97037.06
2022-11-17T07:18:50.381Z,97039.46
2022-11-17T07:21:16.814Z,97039.81
2022-11-17T07:23:43.706Z,97042.66
2022-11-17T07:26:10.530Z,97042.67
2022-11-17T07:28:37.233Z,97042.75
2022-11-17T07:31:06.199Z,97040.42
2022-11-17T07:33:33.368Z,97034.91
2022-11-17T07:36:11.073Z,97038.93
2022-11-17T07:38:39.666Z,97040.38
2022-11-17T07:41:07.752Z,97045.38
2022-11-17T07:43:35.175Z,97047.02
2022-11-17T07:46:11.116Z,97042.77
2022-11-17T07:48:38.312Z,97042.65
2022-11-17T07:51:06.077Z,97044.15
2022-11-17T07:53:33.599Z,97048.66
2022-11-17T07:56:08.794Z,97044.77
2022-11-17T07:58:36.470Z,97053.31
2022-11-17T08:01:12.184Z,97051.34
2022-11-17T08:03:38.757Z,97053.51
2022-11-17T08:06:07.030Z,97055.66
2022-11-17T08:08:34.311Z,97060.31
2022-11-17T08:11:08.716Z,97059.23
2022-11-17T08:13:35.739Z,97064.67
2022-11-17T08:16:02.202Z,97063.64
2022-11-17T08:18:29.234Z,97068.55
2022-11-17T08:21:07.008Z,97073.32
2022-11-17T08:23:33.868Z,97073.41
2022-11-17T08:26:02.570Z,97072.92
2022-11-17T08:28:30.319Z,97069.95
2022-11-17T08:30:57.071Z,97072.34
2022-11-17T08:33:23.692Z,97073.41
2022-11-17T08:35:50.150Z,97074.98
2022-11-17T08:38:16.900Z,97074.44
2022-11-17T08:40:43.433Z,97075.98
2022-11-17T08:43:09.824Z,97078.84
2022-11-17T08:45:36.318Z,97076.48
2022-11-17T08:48:02.952Z,97080.84
2022-11-17T08:50:29.710Z,97083.36
2022-11-17T08:52:56.245Z,97087.20
2022-11-17T08:55:22.973Z,97089.83
2022-11-17T08:57:49.535Z,97088.48
2022-11-17T09:00:16.774Z,97091.13
2022-11-17T09:02:43.156Z,97085.70
2022-11-17T09:05:09.631Z,97090.00
2022-11-17T09:07:36.183Z,97090.93
2022-11-17T09:10:05.294Z,97094.50
2022-11-17T09:12:32.026Z,97091.92
2022-11-17T09:14:58.591Z,97091.73
2022-11-17T09:17:25.117Z,97088.95
2022-11-17T09:19:51.518Z,97090.61
2022-11-17T09:22:17.988Z,97086.94
2022-11-17T09:24:44.401Z,97091.79
2022-11-17T09:27:10.825Z,97096.27
2022-11-17T09:29:37.297Z,97099.73
2022-11-17T09:32:03.818Z,97102.23
2022-11-17T09:34:30.272Z,97103.80
2022-11-17T09:36:56.817Z,97105.45
2022-11-17T09:39:23.220Z,97103.80
2022-11-17T09:41:53.142Z,97107.42
2022-11-17T09:44:35.009Z,97108.98
2022-11-17T09:47:13.439Z,97108.82
2022-11-17T09:50:05.020Z,97108.05
2022-11-17T09:52:53.589Z,97101.45
2022-11-17T09:55:37.264Z,97099.41
2022-11-17T09:58:44.709Z,97098.09
2022-11-17T10:01:16.788Z,97095.31
2022-11-17T10:03:46.316Z,97095.89
2022-11-17T10:06:16.077Z,97100.42
2022-11-17T10:09:01.082Z,97100.77
2022-11-17T10:11:31.113Z,97100.08
2022-11-17T10:14:10.444Z,97100.00
2022-11-17T10:16:38.448Z,97102.89
2022-11-17T10:19:21.560Z,97099.40
2022-11-17T10:21:52.537Z,97095.56
2022-11-17T10:24:37.736Z,97101.05
2022-11-17T10:27:32.485Z,97099.56
2022-11-17T10:30:03.982Z,97098.79
2022-11-17T10:32:31.991Z,97099.86
2022-11-17T10:35:17.045Z,97099.01
2022-11-17T10:38:19.169Z,97097.47
2022-11-17T10:40:51.587Z,97091.10
2022-11-17T10:43:24.020Z,97084.00
2022-11-17T10:46:00.999Z,97083.02
2022-11-17T10:48:33.787Z,97083.92
2022-11-17T10:51:05.063Z,97084.69
2022-11-17T10:53:44.458Z,97081.73
2022-11-17T10:56:14.238Z,97083.95
2022-11-17T10:59:12.901Z,97082.85
2022-11-17T11:01:42.450Z,97088.27
2022-11-17T11:04:33.407Z,97090.95
2022-11-17T11:07:21.345Z,97092.19
2022-11-17T11:10:04.502Z,97088.23
2022-11-17T11:12:45.064Z,97092.19
2022-11-17T11:15:19.168Z,97096.79
2022-11-17T11:17:45.829Z,97101.39
2022-11-17T11:20:17.975Z,97106.70
2022-11-17T11:23:12.380Z,97103.34
2022-11-17T11:25:51.832Z,97099.85
2022-11-17T11:28:46.194Z,97101.13
2022-11-17T11:32:10.282Z,97099.80
2022-11-17T11:34:36.753Z,97104.85
2022-11-17T11:37:05.956Z,97109.63
2022-11-17T11:39:54.421Z,97112.83
2022-11-17T11:42:39.285Z,97113.48
2022-11-17T11:45:41.720Z,97110.04
2022-11-17T11:48:27.972Z,97107.20
2022-11-17T11:51:02.091Z,97106.84
2022-11-17T11:53:43.784Z,97111.24
2022-11-17T11:56:15.237Z,97108.84
2022-11-17T11:58:47.773Z,97106.36
2022-11-17T12:01:15.301Z,97104.05
2022-11-17T12:04:06.197Z,97104.15
2022-11-17T12:07:12.943Z,97110.16
2022-11-17T12:10:04.851Z,97113.70
2022-11-17T12:12:35.952Z,97116.23
2022-11-17T12:15:20.885Z,97114.21
2022-11-17T12:18:10.490Z,97110.34
2022-11-17T12:20:36.960Z,97101.14
2022-11-17T12:23:38.143Z,97094.56
2022-11-17T12:26:05.392Z,97091.33
2022-11-17T12:28:33.520Z,97092.98
2022-11-17T12:31:20.968Z,97089.77
2022-11-17T12:33:53.481Z,97090.23
2022-11-17T12:36:31.436Z,97092.13
2022-11-17T12:39:00.268Z,97095.39
2022-11-17T12:41:48.679Z,97094.17
2022-11-17T12:44:37.277Z,97099.77
2022-11-17T12:47:22.213Z,97099.21
2022-11-17T12:49:59.743Z,97105.55
2022-11-17T12:52:46.381Z,97109.80
2022-11-17T12:55:31.576Z,97110.40
2022-11-17T12:58:28.079Z,97117.38
2022-11-17T13:01:17.494Z,97120.45
2022-11-17T13:03:52.847Z,97119.40
2022-11-17T13:06:34.941Z,97119.37
2022-11-17T13:09:13.009Z,97121.20
2022-11-17T13:11:39.477Z,97124.92
2022-11-17T13:14:17.124Z,97130.58
2022-11-17T13:16:51.004Z,97140.17
2022-11-17T13:19:44.205Z,97146.19
2022-11-17T13:22:17.435Z,97152.70
2022-11-17T13:24:49.338Z,97150.70
2022-11-17T13:27:31.309Z,97148.54
2022-11-17T13:30:27.123Z,97145.98
2022-11-17T13:32:56.023Z,97148.13
2022-11-17T13:35:26.959Z,97145.97
2022-11-17T13:38:11.931Z,97138.86
2022-11-17T13:40:41.856Z,97137.05
2022-11-17T13:43:13.462Z,97136.08
2022-11-17T13:45:40.056Z,97131.60
2022-11-17T13:48:06.892Z,97127.05
2022-11-17T13:50:36.355Z,97127.78
2022-11-17T13:53:12.912Z,97132.59
2022-11-17T13:55:46.981Z,97131.27
2022-11-17T13:58:34.208Z,97131.12
2022-11-17T14:01:01.753Z,97127.23
2022-11-17T14:03:34.189Z,97128.61
2022-11-17T14:06:00.922Z,97130.70
2022-11-17T14:08:31.016Z,97134.18
2022-11-17T14:11:09.668Z,97139.05
2022-11-17T14:13:48.011Z,97140.00
2022-11-17T14:16:38.989Z,97139.91
2022-11-17T14:19:29.291Z,97141.21
2022-11-17T14:22:04.022Z,97144.15
2022-11-17T14:24:32.004Z,97142.10
2022-11-17T14:26:59.229Z,97141.92
2022-11-17T14:29:27.412Z,97143.52
2022-11-17T14:31:58.575Z,97142.22
2022-11-17T14:34:27.826Z,97140.88
2022-11-17T14:36:56.045Z,97137.83
2022-11-17T14:39:23.117Z,97131.70
2022-11-17T14:41:50.785Z,97132.06
2022-11-17T14:44:17.426Z,97129.17
2022-11-17T14:46:44.161Z,97129.52
2022-11-17T14:49:10.697Z,97132.77
2022-11-17T14:51:37.125Z,97140.48
2022-11-17T14:54:04.012Z,97137.24
2022-11-17T14:56:30.512Z,97135.91
2022-11-17T14:58:59.322Z,97138.52
2022-11-17T15:01:28.356Z,97140.76
2022-11-17T15:03:56.839Z,97145.38
2022-11-17T15:06:24.266Z,97153.23
2022-11-17T15:09:00.105Z,97150.48
2022-11-17T15:11:29.305Z,97144.35
2022-11-17T15:14:01.737Z,97144.85
2022-11-17T15:16:28.441Z,97143.51
2022-11-17T15:18:54.874Z,97148.65
2022-11-17T15:21:21.617Z,97150.20
2022-11-17T15:23:48.157Z,97137.23
2022-11-17T15:26:17.122Z,97123.40
2022-11-17T15:28:43.586Z,97116.06
2022-11-17T15:31:12.882Z,97111.63
2022-11-17T15:33:44.068Z,97112.28
2022-11-17T15:36:13.694Z,97117.66
2022-11-17T15:38:40.494Z,97122.58
2022-11-17T15:41:09.461Z,97122.11
2022-11-17T15:43:38.697Z,97119.20
2022-11-17T15:46:11.062Z,97120.45
2022-11-17T15:48:39.887Z,97117.91
2022-11-17T15:51:07.211Z,97124.45
2022-11-17T15:53:36.271Z,97135.37
2022-11-17T15:56:08.124Z,97142.03
2022-11-17T15:58:35.647Z,97137.07
2022-11-17T16:01:15.459Z,97129.18
2022-11-17T16:03:45.173Z,97123.38
2022-11-17T16:06:12.381Z,97122.39
2022-11-17T16:08:39.337Z,97121.89
2022-11-17T16:11:06.980Z,97124.80
2022-11-17T16:13:33.615Z,97114.09
2022-11-17T16:16:00.181Z,97104.71
2022-11-17T16:18:26.959Z,97096.23
2022-11-17T16:20:53.487Z,97099.34
2022-11-17T16:23:20.423Z,97097.16
2022-11-17T16:25:48.782Z,97099.13
2022-11-17T16:28:17.264Z,97099.41
2022-11-17T16:30:43.684Z,97101.70
2022-11-17T16:33:12.495Z,97101.79
2022-11-17T16:35:40.436Z,97097.91
2022-11-17T16:38:17.415Z,97103.02
2022-11-17T16:40:44.696Z,97104.74
2022-11-17T16:43:12.566Z,97108.54
2022-11-17T16:45:45.031Z,97102.11
2022-11-17T16:48:13.133Z,97107.93
2022-11-17T16:50:41.087Z,97107.91
2022-11-17T16:53:07.958Z,97100.69
2022-11-17T16:55:37.944Z,97098.62
2022-11-17T16:58:05.836Z,97103.54
2022-11-17T17:00:33.166Z,97108.46
2022-11-17T17:02:59.684Z,97107.95
2022-11-17T17:05:27.011Z,97109.39
2022-11-17T17:07:53.629Z,97108.66
2022-11-17T17:10:20.008Z,97108.65
2022-11-17T17:12:46.456Z,97107.21
2022-11-17T17:15:13.059Z,97111.90
2022-11-17T17:17:39.579Z,97110.21
2022-11-17T17:20:06.831Z,97111.42
2022-11-17T17:22:33.287Z,97114.89
2022-11-17T17:24:59.706Z,97120.20
2022-11-17T17:27:26.246Z,97124.44
2022-11-17T17:29:52.888Z,97129.02
2022-11-17T17:32:19.283Z,97130.33
2022-11-17T17:34:45.667Z,97133.85
2022-11-17T17:37:12.195Z,97135.05
2022-11-17T17:39:38.731Z,97129.54
2022-11-17T17:42:05.268Z,97124.90
2022-11-17T17:44:31.694Z,97123.88
2022-11-17T17:46:58.142Z,97115.16
2022-11-17T17:49:24.704Z,97103.57
2022-11-17T17:51:51.216Z,97099.66
2022-11-17T17:54:19.932Z,97097.95
2022-11-17T17:56:47.365Z,97099.13
2022-11-17T17:59:14.162Z,97103.21
2022-11-17T18:01:41.278Z,97113.63
2022-11-17T18:04:12.669Z,97117.02
2022-11-17T18:06:43.699Z,97115.79
2022-11-17T18:09:11.020Z,97116.30
2022-11-17T18:11:37.459Z,97119.19
2022-11-17T18:14:04.620Z,97116.85
2022-11-17T18:16:33.423Z,97115.34
2022-11-17T18:19:02.314Z,97113.45
2022-11-17T18:21:29.172Z,97115.67
2022-11-17T18:23:56.793Z,97111.99
2022-11-17T18:26:28.363Z,97114.23
2022-11-17T18:28:55.992Z,97114.09
2022-11-17T18:31:24.613Z,97116.51
2022-11-17T18:34:16.468Z,97111.89
2022-11-17T18:36:42.907Z,97110.02
2022-11-17T18:39:09.645Z,97113.23
2022-11-17T18:41:36.701Z,97114.91
2022-11-17T18:44:03.835Z,97117.95
2022-11-17T18:46:32.117Z,97114.56
2022-11-17T18:48:59.809Z,97110.27
2022-11-17T18:51:31.049Z,97105.44
2022-11-17T18:53:59.776Z,97101.34
2022-11-17T18:56:37.135Z,97109.33
2022-11-17T18:59:05.516Z,97111.40
2022-11-17T19:01:32.087Z,97104.22
2022-11-17T19:04:00.118Z,97091.78
2022-11-17T19:06:26.988Z,97089.61
2022-11-17T19:08:53.726Z,97092.74
2022-11-17T19:11:21.900Z,97090.44
2022-11-17T19:13:49.085Z,97089.64
2022-11-17T19:16:24.102Z,97095.52
2022-11-17T19:18:53.169Z,97101.66
2022-11-17T19:21:22.288Z,97094.95
2022-11-17T19:23:52.003Z,97094.80
2022-11-17T19:26:21.732Z,97089.71
2022-11-17T19:28:48.707Z,97082.45
2022-11-17T19:31:18.838Z,97081.54
2022-11-17T19:33:47.226Z,97081.42
2022-11-17T19:36:35.440Z,97076.58
2022-11-17T19:39:03.412Z,97073.91
2022-11-17T19:41:32.556Z,97073.05
2022-11-17T19:44:00.787Z,97071.67
2022-11-17T19:46:29.085Z,97072.88
2022-11-17T19:48:56.959Z,97072.03
2022-11-17T19:51:26.435Z,97061.96
2022-11-17T19:53:56.296Z,97061.12
2022-11-17T19:56:24.644Z,97063.52
2022-11-17T19:58:52.262Z,97062.35
2022-11-17T20:01:27.817Z,97061.02
2022-11-17T20:03:55.547Z,97063.94
2022-11-17T20:06:25.281Z,97062.29
2022-11-17T20:08:51.801Z,97059.92
2022-11-17T20:11:27.023Z,97058.39
2022-11-17T20:13:55.475Z,97061.30
2022-11-17T20:16:25.334Z,97071.52
2022-11-17T20:18:54.614Z,97073.55
2022-11-17T20:21:22.022Z,97077.99
2022-11-17T20:23:48.864Z,97076.27
2022-11-17T20:26:19.059Z,97074.55
2022-11-17T20:28:45.985Z,97079.98
2022-11-17T20:31:15.527Z,97076.54
2022-11-17T20:33:43.419Z,97077.84
2022-11-17T20:36:15.526Z,97075.76
2022-11-17T20:38:42.342Z,97082.62
2022-11-17T20:41:08.983Z,97080.41
2022-11-17T20:43:36.343Z,97072.27
2022-11-17T20:46:03.687Z,97071.63
2022-11-17T20:48:30.858Z,97064.59
2022-11-17T20:51:02.732Z,97061.64
2022-11-17T20:53:29.771Z,97055.83
2022-11-17T20:55:57.832Z,97058.55
2022-11-17T20:58:25.460Z,97055.80
2022-11-17T21:00:52.892Z,97060.41
2022-11-17T21:03:19.626Z,97061.39
2022-11-17T21:05:59.184Z,97060.52
2022-11-17T21:08:35.830Z,97058.14
2022-11-17T21:11:05.235Z,97056.58
2022-11-17T21:13:33.108Z,97057.23
2022-11-17T21:16:14.745Z,97061.46
2022-11-17T21:18:47.912Z,97057.36
2022-11-17T21:21:15.577Z,97056.00
2022-11-17T21:23:43.453Z,97048.36
2022-11-17T21:26:15.544Z,97046.69
2022-11-17T21:28:41.941Z,97042.14
2022-11-17T21:31:12.241Z,97043.52
2022-11-17T21:33:40.250Z,97043.20
2022-11-17T21:36:09.929Z,97043.61
2022-11-17T21:38:37.224Z,97041.08
2022-11-17T21:41:08.067Z,97036.34
2022-11-17T21:43:39.294Z,97034.80
2022-11-17T21:46:11.848Z,97026.13
2022-11-17T21:48:38.750Z,97025.30
2022-11-17T21:51:14.816Z,97021.40
2022-11-17T21:53:41.265Z,97018.67
2022-11-17T21:56:08.193Z,97016.44
2022-11-17T21:58:34.837Z,97015.92
2022-11-17T22:01:28.258Z,97017.08
2022-11-17T22:03:55.114Z,97018.23
2022-11-17T22:06:23.724Z,97015.66
2022-11-17T22:08:51.102Z,97011.86
2022-11-17T22:11:20.164Z,97011.36
2022-11-17T22:13:46.610Z,97009.91
2022-11-17T22:16:14.387Z,97008.61
2022-11-17T22:18:41.441Z,97006.39
2022-11-17T22:21:08.865Z,97001.73
2022-11-17T22:23:35.687Z,97003.23
2022-11-17T22:26:05.623Z,97000.83
2022-11-17T22:28:32.375Z,96993.81
2022-11-17T22:30:59.079Z,96990.90
2022-11-17T22:33:25.629Z,96983.59
2022-11-17T22:35:52.160Z,96986.68
2022-11-17T22:38:18.699Z,96982.95
2022-11-17T22:40:45.314Z,96982.08
2022-11-17T22:43:15.292Z,96984.48
2022-11-17T22:45:42.051Z,96976.50
2022-11-17T22:48:08.803Z,96976.63
2022-11-17T22:50:36.110Z,96978.98
2022-11-17T22:53:02.676Z,96977.59
2022-11-17T22:55:29.818Z,96975.88
2022-11-17T22:57:56.366Z,96975.02
2022-11-17T23:00:22.916Z,96971.18
2022-11-17T23:02:49.613Z,96969.89
2022-11-17T23:05:16.205Z,96964.96
2022-11-17T23:07:42.876Z,96969.35
2022-11-17T23:10:10.399Z,96970.39
2022-11-17T23:12:37.038Z,96971.55
2022-11-17T23:15:04.590Z,96970.36
2022-11-17T23:17:31.246Z,96965.21
2022-11-17T23:19:58.018Z,96957.16
2022-11-17T23:22:24.733Z,96953.95
2022-11-17T23:24:51.276Z,96955.83
2022-11-17T23:27:17.690Z,96949.98
2022-11-17T23:29:44.101Z,96945.75
2022-11-17T23:32:10.556Z,96946.17
2022-11-17T23:34:37.026Z,96942.91
2022-11-17T23:37:04.148Z,96944.92
2022-11-17T23:39:30.786Z,96938.91
2022-11-17T23:41:57.259Z,96937.35
2022-11-17T23:44:23.690Z,96937.37
2022-11-17T23:46:50.448Z,96938.09
2022-11-17T23:49:17.045Z,96937.12
2022-11-17T23:51:43.635Z,96933.89
2022-11-17T23:54:13.651Z,96932.86
2022-11-17T23:56:40.703Z,96927.91
2022-11-17T23:59:07.554Z,96925.02
